createdAt,value
2022-11-09T00:01:32.172Z,10.09
2022-11-09T00:04:05.824Z,10.09
2022-11-09T00:06:38.734Z,10.10
2022-11-09T00:09:11.030Z,10.08
2022-11-09T00:11:42.941Z,10.05
2022-11-09T00:14:18.613Z,10.00
2022-11-09T00:16:50.629Z,9.97
2022-11-09T00:19:22.566Z,9.93
2022-11-09T00:21:54.631Z,9.93
2022-11-09T00:24:26.729Z,9.92
2022-11-09T00:26:58.713Z,9.90
2022-11-09T00:29:33.724Z,9.90
2022-11-09T00:32:06.044Z,9.89
2022-11-09T00:34:38.084Z,9.85
2022-11-09T00:37:10.713Z,9.84
2022-11-09T00:39:44.087Z,9.82
2022-11-09T00:42:16.203Z,9.78
2022-11-09T00:44:48.448Z,9.73
2022-11-09T00:47:21.077Z,9.71
2022-11-09T00:49:53.065Z,9.71
2022-11-09T00:52:25.109Z,9.71
2022-11-09T00:54:57.226Z,9.72
2022-11-09T00:57:29.341Z,9.74
2022-11-09T01:00:01.560Z,9.73
2022-11-09T01:02:33.653Z,9.72
2022-11-09T01:05:06.697Z,9.70
2022-11-09T01:07:39.470Z,9.66
2022-11-09T01:10:12.152Z,9.62
2022-11-09T01:12:44.242Z,9.60
2022-11-09T01:15:16.282Z,9.59
2022-11-09T01:17:48.963Z,9.58
2022-11-09T01:20:22.413Z,9.59
2022-11-09T01:22:55.555Z,9.59
2022-11-09T01:25:27.669Z,9.58
2022-11-09T01:28:01.761Z,9.57
2022-11-09T01:30:36.844Z,9.56
2022-11-09T01:33:10.881Z,9.53
2022-11-09T01:35:43.306Z,9.51
2022-11-09T01:38:15.552Z,9.49
2022-11-09T01:40:47.671Z,9.48
2022-11-09T01:43:22.357Z,9.43
2022-11-09T01:45:57.921Z,9.41
2022-11-09T01:48:37.869Z,9.45
2022-11-09T01:51:14.876Z,9.41
2022-11-09T01:53:50.554Z,9.40
2022-11-09T01:56:22.952Z,9.41
2022-11-09T01:59:00.493Z,9.39
2022-11-09T02:01:35.696Z,9.31
2022-11-09T02:04:10.593Z,9.24
2022-11-09T02:06:43.432Z,9.21
2022-11-09T02:09:23.164Z,9.19
2022-11-09T02:11:55.286Z,9.19
2022-11-09T02:14:30.531Z,9.27
2022-11-09T02:17:02.931Z,9.25
2022-11-09T02:19:35.325Z,9.24
2022-11-09T02:22:09.437Z,9.24
2022-11-09T02:24:41.633Z,9.22
2022-11-09T02:27:13.622Z,9.16
2022-11-09T02:29:49.396Z,9.12
2022-11-09T02:32:25.041Z,9.10
2022-11-09T02:34:57.524Z,9.08
2022-11-09T02:37:34.544Z,9.08
2022-11-09T02:40:12.206Z,9.14
2022-11-09T02:42:44.702Z,9.16
2022-11-09T02:45:16.819Z,9.17
2022-11-09T02:47:48.922Z,9.19
2022-11-09T02:50:21.130Z,9.19
2022-11-09T02:52:53.325Z,9.16
2022-11-09T02:55:25.633Z,9.13
2022-11-09T02:57:59.324Z,9.07
2022-11-09T03:00:31.552Z,9.02
2022-11-09T03:03:04.173Z,8.98
2022-11-09T03:05:36.417Z,8.98
2022-11-09T03:08:08.727Z,9.04
2022-11-09T03:10:40.959Z,9.05
2022-11-09T03:13:13.535Z,9.03
2022-11-09T03:15:45.783Z,9.04
2022-11-09T03:18:17.927Z,9.06
2022-11-09T03:20:50.137Z,9.04
2022-11-09T03:23:22.817Z,8.98
2022-11-09T03:25:54.845Z,8.97
2022-11-09T03:28:27.368Z,8.95
2022-11-09T03:30:59.740Z,8.94
2022-11-09T03:33:32.520Z,8.95
2022-11-09T03:36:05.379Z,8.98
2022-11-09T03:38:37.445Z,8.98
2022-11-09T03:41:09.664Z,8.97
2022-11-09T03:43:41.917Z,8.95
2022-11-09T03:46:13.950Z,8.93
2022-11-09T03:48:45.912Z,8.93
2022-11-09T03:51:17.954Z,8.91
2022-11-09T03:53:49.999Z,8.87
2022-11-09T03:56:22.398Z,8.85
2022-11-09T03:58:54.560Z,8.85
2022-11-09T04:01:26.681Z,8.84
2022-11-09T04:03:58.718Z,8.87
2022-11-09T04:06:30.911Z,8.88
2022-11-09T04:09:03.362Z,8.86
2022-11-09T04:11:35.383Z,8.84
2022-11-09T04:14:07.312Z,8.84
2022-11-09T04:16:39.590Z,8.84
2022-11-09T04:19:11.675Z,8.82
2022-11-09T04:21:43.873Z,8.80
2022-11-09T04:24:16.202Z,8.80
2022-11-09T04:26:49.561Z,8.76
2022-11-09T04:29:21.782Z,8.72
2022-11-09T04:31:53.933Z,8.74
2022-11-09T04:34:25.940Z,8.73
2022-11-09T04:36:57.933Z,8.72
2022-11-09T04:39:29.944Z,8.70
2022-11-09T04:42:01.934Z,8.71
2022-11-09T04:44:33.998Z,8.69
2022-11-09T04:47:06.012Z,8.64
2022-11-09T04:49:38.001Z,8.63
2022-11-09T04:52:10.015Z,8.62
2022-11-09T04:54:42.085Z,8.58
2022-11-09T04:57:14.225Z,8.58
2022-11-09T04:59:46.267Z,8.63
2022-11-09T05:02:18.333Z,8.64
2022-11-09T05:04:50.428Z,8.65
2022-11-09T05:07:22.462Z,8.68
2022-11-09T05:09:54.630Z,8.70
2022-11-09T05:12:26.746Z,8.70
2022-11-09T05:14:58.749Z,8.67
2022-11-09T05:17:30.801Z,8.66
2022-11-09T05:20:02.930Z,8.67
2022-11-09T05:22:52.469Z,8.66
2022-11-09T05:25:24.534Z,8.65
2022-11-09T05:27:56.652Z,8.67
2022-11-09T05:30:28.673Z,8.68
2022-11-09T05:33:00.680Z,8.68
2022-11-09T05:35:33.566Z,8.70
2022-11-09T05:38:05.682Z,8.69
2022-11-09T05:40:37.674Z,8.67
2022-11-09T05:43:09.661Z,8.64
2022-11-09T05:45:43.947Z,8.65
2022-11-09T05:48:18.300Z,8.64
2022-11-09T05:50:50.264Z,8.61
2022-11-09T05:53:45.893Z,8.62
2022-11-09T05:56:18.796Z,8.65
2022-11-09T05:58:50.753Z,8.63
2022-11-09T06:01:23.151Z,8.61
2022-11-09T06:03:57.599Z,8.64
2022-11-09T06:06:30.122Z,8.69
2022-11-09T06:09:02.217Z,8.71
2022-11-09T06:11:34.206Z,8.75
2022-11-09T06:14:06.394Z,8.76
2022-11-09T06:16:38.773Z,8.73
2022-11-09T06:19:11.066Z,8.72
2022-11-09T06:21:43.313Z,8.82
2022-11-09T06:24:15.825Z,8.85
2022-11-09T06:26:47.778Z,8.87
2022-11-09T06:29:19.893Z,8.89
2022-11-09T06:31:51.859Z,8.94
2022-11-09T06:34:24.064Z,8.92
2022-11-09T06:36:56.400Z,8.93
2022-11-09T06:39:28.281Z,8.91
2022-11-09T06:42:00.230Z,8.89
2022-11-09T06:44:32.239Z,8.84
2022-11-09T06:47:04.483Z,8.83
2022-11-09T06:49:36.499Z,8.89
2022-11-09T06:52:08.677Z,8.89
2022-11-09T06:54:40.658Z,8.90
2022-11-09T06:57:12.594Z,8.90
2022-11-09T06:59:44.786Z,8.91
2022-11-09T07:02:18.858Z,8.91
2022-11-09T07:04:52.524Z,8.91
2022-11-09T07:07:27.910Z,8.95
2022-11-09T07:10:00.634Z,8.94
2022-11-09T07:12:33.334Z,8.94
2022-11-09T07:15:06.402Z,8.93
2022-11-09T07:17:39.850Z,8.92
2022-11-09T07:20:15.215Z,8.94
2022-11-09T07:22:50.945Z,8.96
2022-11-09T07:25:23.264Z,8.95
2022-11-09T07:27:55.594Z,8.94
2022-11-09T07:30:27.574Z,8.97
2022-11-09T07:33:09.686Z,8.97
2022-11-09T07:35:42.357Z,8.96
2022-11-09T07:38:15.882Z,8.97
2022-11-09T07:40:48.511Z,8.95
2022-11-09T07:43:21.631Z,8.95
2022-11-09T07:45:56.276Z,8.96
2022-11-09T07:48:28.291Z,9.00
2022-11-09T07:51:03.575Z,9.00
2022-11-09T07:53:35.802Z,9.00
2022-11-09T07:56:08.478Z,9.01
2022-11-09T07:58:40.417Z,9.05
2022-11-09T08:01:13.306Z,9.09
2022-11-09T08:03:45.265Z,9.10
2022-11-09T08:06:18.672Z,9.11
2022-11-09T08:08:51.088Z,9.14
2022-11-09T08:11:23.435Z,9.17
2022-11-09T08:13:55.780Z,9.21
2022-11-09T08:16:28.798Z,9.29
2022-11-09T08:19:03.037Z,9.35
2022-11-09T08:21:36.330Z,9.40
2022-11-09T08:24:08.927Z,9.45
2022-11-09T08:26:40.877Z,9.50
2022-11-09T08:29:15.699Z,9.54
2022-11-09T08:31:46.565Z,9.56
2022-11-09T08:34:18.901Z,9.56
2022-11-09T08:36:50.852Z,9.55
2022-11-09T08:39:23.771Z,9.54
2022-11-09T08:41:55.850Z,9.54
2022-11-09T08:44:27.789Z,9.55
2022-11-09T08:46:59.650Z,9.64
2022-11-09T08:49:32.607Z,9.72
2022-11-09T08:52:04.679Z,9.78
2022-11-09T08:54:36.998Z,9.85
2022-11-09T08:57:09.168Z,9.89
2022-11-09T08:59:41.336Z,9.92
2022-11-09T09:02:13.820Z,9.95
2022-11-09T09:04:46.184Z,10.00
2022-11-09T09:07:18.668Z,10.06
2022-11-09T09:09:50.675Z,10.18
2022-11-09T09:12:22.688Z,10.31
2022-11-09T09:14:55.444Z,10.43
2022-11-09T09:17:27.830Z,10.52
2022-11-09T09:19:59.781Z,10.55
2022-11-09T09:22:32.594Z,10.58
2022-11-09T09:25:04.754Z,10.63
2022-11-09T09:27:37.229Z,10.70
2022-11-09T09:30:11.795Z,10.79
2022-11-09T09:32:44.001Z,10.94
2022-11-09T09:35:15.921Z,11.04
2022-11-09T09:37:47.903Z,11.12
2022-11-09T09:40:27.403Z,11.20
2022-11-09T09:42:59.918Z,11.22
2022-11-09T09:45:35.440Z,11.23
2022-11-09T09:48:22.267Z,11.26
2022-11-09T09:50:59.848Z,11.28
2022-11-09T09:53:36.776Z,11.29
2022-11-09T09:56:14.001Z,11.29
2022-11-09T09:58:50.642Z,11.34
2022-11-09T10:01:25.187Z,11.34
2022-11-09T10:03:57.815Z,11.31
2022-11-09T10:06:48.700Z,11.30
2022-11-09T10:09:33.182Z,11.27
2022-11-09T10:12:12.951Z,11.25
2022-11-09T10:14:58.738Z,11.21
2022-11-09T10:17:38.995Z,11.20
2022-11-09T10:20:31.108Z,11.22
2022-11-09T10:23:19.301Z,11.32
2022-11-09T10:26:06.092Z,11.37
2022-11-09T10:29:13.897Z,11.41
2022-11-09T10:31:35.512Z,11.44
2022-11-09T10:34:21.362Z,11.45
2022-11-09T10:37:05.809Z,11.42
2022-11-09T10:39:44.605Z,11.39
2022-11-09T10:42:35.307Z,11.36
2022-11-09T10:45:32.513Z,11.34
2022-11-09T10:48:34.117Z,11.35
2022-11-09T10:51:42.210Z,11.38
2022-11-09T10:54:35.521Z,11.38
2022-11-09T10:57:26.667Z,11.36
2022-11-09T11:00:23.914Z,11.32
2022-11-09T11:03:19.309Z,11.30
2022-11-09T11:06:18.940Z,11.26
2022-11-09T11:09:23.520Z,11.26
2022-11-09T11:12:20.511Z,11.33
2022-11-09T11:15:25.747Z,11.36
2022-11-09T11:18:23.686Z,11.38
2022-11-09T11:21:20.403Z,11.44
2022-11-09T11:24:17.742Z,11.52
2022-11-09T11:27:13.686Z,11.64
2022-11-09T11:30:11.817Z,11.73
2022-11-09T11:33:03.233Z,11.79
2022-11-09T11:36:00.239Z,11.79
2022-11-09T11:39:13.542Z,11.81
2022-11-09T11:42:21.960Z,11.87
2022-11-09T11:45:40.141Z,11.88
2022-11-09T11:48:50.367Z,11.87
2022-11-09T11:51:51.238Z,11.85
2022-11-09T11:54:57.656Z,11.84
2022-11-09T11:57:59.547Z,11.82
2022-11-09T12:01:00.543Z,11.79
2022-11-09T12:04:03.101Z,11.78
2022-11-09T12:07:07.269Z,11.82
2022-11-09T12:10:20.955Z,11.84
2022-11-09T12:13:22.088Z,11.85
2022-11-09T12:16:21.408Z,11.87
2022-11-09T12:19:35.096Z,11.86
2022-11-09T12:22:35.068Z,11.85
2022-11-09T12:25:35.160Z,11.83
2022-11-09T12:28:44.612Z,11.82
2022-11-09T12:31:46.860Z,11.83
2022-11-09T12:34:46.883Z,11.88
2022-11-09T12:37:41.808Z,11.90
2022-11-09T12:40:34.763Z,11.93
2022-11-09T12:43:31.074Z,11.94
2022-11-09T12:46:27.561Z,11.92
2022-11-09T12:49:32.010Z,11.90
2022-11-09T12:52:28.197Z,11.88
2022-11-09T12:55:28.930Z,11.85
2022-11-09T12:58:30.512Z,11.83
2022-11-09T13:01:47.675Z,11.84
2022-11-09T13:04:38.440Z,11.85
2022-11-09T13:07:50.775Z,11.85
2022-11-09T13:10:42.526Z,11.83
2022-11-09T13:13:33.080Z,11.80
2022-11-09T13:16:38.091Z,11.78
2022-11-09T13:19:54.434Z,11.75
2022-11-09T13:23:05.474Z,11.78
2022-11-09T13:25:57.739Z,11.81
2022-11-09T13:29:10.789Z,11.81
2022-11-09T13:32:34.261Z,11.82
2022-11-09T13:36:14.911Z,11.80
2022-11-09T13:39:30.034Z,11.79
2022-11-09T13:42:37.817Z,11.77
2022-11-09T13:45:36.707Z,11.74
2022-11-09T13:48:34.898Z,11.71
2022-11-09T13:51:39.490Z,11.73
2022-11-09T13:54:34.954Z,11.77
2022-11-09T13:57:28.396Z,11.78
2022-11-09T14:00:23.502Z,11.79
2022-11-09T14:03:26.471Z,11.81
2022-11-09T14:06:17.274Z,11.79
2022-11-09T14:09:17.064Z,11.77
2022-11-09T14:12:22.051Z,11.74
2022-11-09T14:15:21.281Z,11.71
2022-11-09T14:18:23.350Z,11.69
2022-11-09T14:21:29.120Z,11.73
2022-11-09T14:24:22.905Z,11.74
2022-11-09T14:27:21.184Z,11.77
2022-11-09T14:30:23.175Z,11.79
2022-11-09T14:33:26.172Z,11.79
2022-11-09T14:36:17.127Z,11.78
2022-11-09T14:39:20.144Z,11.74
2022-11-09T14:42:18.299Z,11.69
2022-11-09T14:45:17.816Z,11.68
2022-11-09T14:48:18.339Z,11.69
2022-11-09T14:51:14.763Z,11.69
2022-11-09T14:54:10.497Z,11.68
2022-11-09T14:57:03.331Z,11.70
2022-11-09T14:59:55.309Z,11.72
2022-11-09T15:02:46.241Z,11.70
2022-11-09T15:05:40.836Z,11.72
2022-11-09T15:08:31.792Z,11.71
2022-11-09T15:11:23.135Z,11.66
2022-11-09T15:14:25.386Z,11.64
2022-11-09T15:17:21.898Z,11.65
2022-11-09T15:20:28.117Z,11.63
2022-11-09T15:23:39.299Z,11.62
2022-11-09T15:26:37.735Z,11.64
2022-11-09T15:29:38.676Z,11.66
2022-11-09T15:32:33.935Z,11.63
2022-11-09T15:35:25.376Z,11.60
2022-11-09T15:41:18.760Z,11.57
2022-11-09T15:44:09.905Z,11.63
2022-11-09T15:47:01.407Z,11.63
2022-11-09T15:49:52.360Z,11.62
2022-11-09T15:52:44.450Z,11.64
2022-11-09T15:55:35.868Z,11.64
2022-11-09T15:58:26.387Z,11.63
2022-11-09T16:01:16.941Z,11.63
2022-11-09T16:04:07.921Z,11.61
2022-11-09T16:06:58.855Z,11.61
2022-11-09T16:09:49.606Z,11.64
2022-11-09T16:12:46.030Z,11.61
2022-11-09T16:15:38.825Z,11.60
2022-11-09T16:18:30.032Z,11.60
2022-11-09T16:21:20.688Z,11.59
2022-11-09T16:24:11.830Z,11.54
2022-11-09T16:27:04.493Z,11.51
2022-11-09T16:30:03.061Z,11.48
2022-11-09T16:32:53.918Z,11.47
2022-11-09T16:35:44.492Z,11.50
2022-11-09T16:38:51.685Z,11.49
2022-11-09T16:41:45.278Z,11.50
2022-11-09T16:44:38.131Z,11.49
2022-11-09T16:47:29.986Z,11.49
2022-11-09T16:50:21.023Z,11.46
2022-11-09T16:53:12.188Z,11.40
2022-11-09T16:56:03.196Z,11.37
2022-11-09T16:58:54.359Z,11.34
2022-11-09T17:01:50.446Z,11.34
2022-11-09T17:04:41.936Z,11.38
2022-11-09T17:07:42.066Z,11.40
2022-11-09T17:10:33.144Z,11.43
2022-11-09T17:13:23.771Z,11.44
2022-11-09T17:16:20.380Z,11.43
2022-11-09T17:19:14.373Z,11.42
2022-11-09T17:22:05.761Z,11.38
2022-11-09T17:24:56.258Z,11.34
2022-11-09T17:27:46.987Z,11.32
2022-11-09T17:30:41.709Z,11.32
2022-11-09T17:33:32.363Z,11.37
2022-11-09T17:36:41.942Z,11.41
2022-11-09T17:39:35.126Z,11.45
2022-11-09T17:42:26.312Z,11.46
2022-11-09T17:45:17.170Z,11.48
2022-11-09T17:48:08.352Z,11.45
2022-11-09T17:51:01.309Z,11.40
2022-11-09T17:53:51.855Z,11.38
2022-11-09T17:56:43.172Z,11.35
2022-11-09T17:59:34.056Z,11.35
2022-11-09T18:02:24.430Z,11.32
2022-11-09T18:05:16.489Z,11.30
2022-11-09T18:08:08.698Z,11.29
2022-11-09T18:11:00.961Z,11.28
2022-11-09T18:13:51.741Z,11.24
2022-11-09T18:16:42.521Z,11.21
2022-11-09T18:19:33.636Z,11.16
2022-11-09T18:22:24.111Z,11.15
2022-11-09T18:25:15.194Z,11.16
2022-11-09T18:28:06.159Z,11.15
2022-11-09T18:31:02.589Z,11.15
2022-11-09T18:33:54.064Z,11.16
2022-11-09T18:36:45.071Z,11.17
2022-11-09T18:39:35.529Z,11.16
2022-11-09T18:42:26.984Z,11.14
2022-11-09T18:45:18.102Z,11.10
2022-11-09T18:48:09.259Z,11.08
2022-11-09T18:51:01.038Z,11.08
2022-11-09T18:53:51.847Z,11.11
2022-11-09T18:56:43.961Z,11.10
2022-11-09T18:59:37.942Z,11.12
2022-11-09T19:02:29.075Z,11.14
2022-11-09T19:05:19.958Z,11.15
2022-11-09T19:08:10.866Z,11.13
2022-11-09T19:11:07.302Z,11.12
2022-11-09T19:13:58.799Z,11.12
2022-11-09T19:16:49.631Z,11.11
2022-11-09T19:19:40.525Z,11.15
2022-11-09T19:22:31.427Z,11.14
2022-11-09T19:25:22.122Z,11.14
2022-11-09T19:28:12.800Z,11.13
2022-11-09T19:31:04.352Z,11.12
2022-11-09T19:33:55.256Z,11.09
2022-11-09T19:36:46.860Z,11.07
2022-11-09T19:39:42.647Z,11.05
2022-11-09T19:42:34.483Z,11.06
2022-11-09T19:45:25.106Z,11.09
2022-11-09T19:48:15.937Z,11.09
2022-11-09T19:51:07.493Z,11.09
2022-11-09T19:54:00.113Z,11.11
2022-11-09T19:56:50.478Z,11.12
2022-11-09T19:59:40.898Z,11.09
2022-11-09T20:02:32.138Z,11.08
2022-11-09T20:05:22.918Z,11.06
2022-11-09T20:08:18.062Z,11.07
2022-11-09T20:11:10.749Z,11.11
2022-11-09T20:14:01.991Z,11.13
2022-11-09T20:16:53.486Z,11.14
2022-11-09T20:19:44.266Z,11.17
2022-11-09T20:22:34.763Z,11.16
2022-11-09T20:25:25.645Z,11.14
2022-11-09T20:28:16.533Z,11.12
2022-11-09T20:31:12.402Z,11.07
2022-11-09T20:34:02.580Z,11.06
2022-11-09T20:36:53.449Z,11.07
2022-11-09T20:39:44.587Z,11.06
2022-11-09T20:42:35.422Z,11.05
2022-11-09T20:45:26.019Z,11.07
2022-11-09T20:48:38.707Z,11.07
2022-11-09T20:51:28.806Z,11.05
2022-11-09T20:54:19.709Z,11.00
2022-11-09T20:57:10.641Z,10.96
2022-11-09T21:00:01.140Z,10.93
2022-11-09T21:02:51.867Z,10.95
2022-11-09T21:05:46.520Z,10.99
2022-11-09T21:08:40.081Z,10.99
2022-11-09T21:11:35.783Z,11.01
2022-11-09T21:14:25.005Z,11.01
2022-11-09T21:17:16.201Z,11.01
2022-11-09T21:20:09.837Z,11.00
2022-11-09T21:23:20.378Z,10.97
2022-11-09T21:26:29.483Z,10.95
2022-11-09T21:29:40.232Z,10.93
2022-11-09T21:32:31.165Z,10.90
2022-11-09T21:35:22.053Z,10.88
2022-11-09T21:38:13.414Z,10.92
2022-11-09T21:41:25.518Z,10.90
2022-11-09T21:44:16.878Z,10.88
2022-11-09T21:47:07.828Z,10.89
2022-11-09T21:49:58.882Z,10.88
2022-11-09T21:52:49.968Z,10.85
2022-11-09T21:55:41.107Z,10.83
2022-11-09T21:58:32.197Z,10.78
2022-11-09T22:01:23.708Z,10.76
2022-11-09T22:04:15.136Z,10.81
2022-11-09T22:07:05.630Z,10.79
2022-11-09T22:10:09.949Z,10.78
2022-11-09T22:13:19.053Z,10.77
2022-11-09T22:16:10.319Z,10.77
2022-11-09T22:19:19.902Z,10.74
2022-11-09T22:22:10.331Z,10.72
2022-11-09T22:25:00.872Z,10.70
2022-11-09T22:27:51.576Z,10.64
2022-11-09T22:30:42.331Z,10.62
2022-11-09T22:33:34.332Z,10.63
2022-11-09T22:36:26.091Z,10.60
2022-11-09T22:39:16.483Z,10.57
2022-11-09T22:42:07.493Z,10.57
2022-11-09T22:44:58.043Z,10.56
2022-11-09T22:47:49.155Z,10.51
2022-11-09T22:50:40.171Z,10.49
2022-11-09T22:53:31.152Z,10.45
2022-11-09T22:56:21.755Z,10.43
2022-11-09T22:59:12.511Z,10.40
2022-11-09T23:02:03.155Z,10.41
2022-11-09T23:04:53.759Z,10.40
2022-11-09T23:07:44.262Z,10.39
2022-11-09T23:10:34.903Z,10.41
2022-11-09T23:13:25.686Z,10.44
2022-11-09T23:16:16.440Z,10.43
2022-11-09T23:19:07.321Z,10.42
2022-11-09T23:21:58.566Z,10.40
2022-11-09T23:25:06.826Z,10.37
2022-11-09T23:27:57.634Z,10.36
2022-11-09T23:30:48.389Z,10.34
2022-11-09T23:33:39.730Z,10.36
2022-11-09T23:36:30.201Z,10.37
2022-11-09T23:39:20.932Z,10.36
2022-11-09T23:42:11.739Z,10.36
2022-11-09T23:45:03.180Z,10.36
2022-11-09T23:47:54.983Z,10.34
2022-11-09T23:50:46.481Z,10.26
2022-11-09T23:53:37.804Z,10.18
2022-11-09T23:56:28.627Z,10.10
2022-11-09T23:59:19.504Z,10.06
